Portada
METAR-TAF:

METAR-TAF

Aeroports :

Rurrenabaque, Bolívia

latitud: 14-28S, longitud: 067-34W, altitud: 204 m

Observació

L'informe es va fer fa 58 minuts, a les 20:00 UTC
Vent 5 kt del Est/Sud-Est
Temperatura 19°C
Humitat 60%
Pressió 1020 hPa
Visibilitat 10 km o més
Núvols disperses a una alçada de 3000 ft
Cel cobert a una alçada de 7000 ft

METAR: SLRQ 282000Z 11005KT 9999 SCT030 OVC070 19/11 Q1020

Hora: 16:58 (20:58 UTC)


TAF: manca

Observacions i pronòstics meteorològics de més de 4000 aeroports (METAR i TAF).

Les estacions disponibles són els punts grocs i vermells al mapa.

Posi el ratolí al punt desitjat per veure el nom de l'estació.

Feu clic per veure les observacions i els pronòstics meteorològics.

Per canviar el mapa: feu clic els botons verds amb una creu de color negre per apropar; al botó verd amb un guió per allunyar la imatge; o en les fletxes verdes per a mapes adjacents.


METAR-TAF: